LEBB/BIO METAR and TAF weather

Enter ICAO airport designator
Station Type Date Time Source
LEBB METAR 2024/06/14 01:30 UTC NOAA

LEBB 140130Z AUTO 12005KT 080V140 CAVOK 17/13 Q1015


Station Type Date Time Source
LEBB Decoded METAR 2024/06/14 01:30 UTC NOAA

Bilbao / Sondica, Spain (LEBB) 43-18N 002-56W 37M
Jun 13, 2024 - 09:30 PM EDT / 2024.06.14 0130 UTC
Wind: from the ESE (120 degrees) at 6 MPH (5 KT) (direction variable):0
Visibility: greater than 7 mile(s):0
Temperature: 62 F (17 C)
Dew Point: 55 F (13 C)
Relative Humidity: 77%
Pressure (altimeter): 29.97 in. Hg (1015 hPa)
ob: LEBB 140130Z AUTO 12005KT 080V140 CAVOK 17/13 Q1015
cycle: 1

Station Type Date Time Source
LEBB TAF 2024/06/13 18:30 UTC NOAA